• Join FlightAware (Why Join?)
  • Login
  • US Flag 
06:03AM EDT


 

Airport Tracker/Info


-or-


 

Live Flight TrackerFlight Track Log ✈ AMF1695 ✈ 28-Mar-2014 ✈ KGRI - KOMA

Flight Track Log - Related Links

Times and Time Zones

All times are in EDT time to prevent confusion due to time zone crossing. See the AMF1695 flight status page for this flight to view local times or setup timezone preferences in your user account.

Time Position Orientation Groundspeed Altitude Reporting Facility
EDT Latitude Longitude Course Direction KTS MPH feet Rate Location/Type
09:27PM 41.0069 -98.2772 48° Northeast 187 215 3,700  Level Minneapolis Center
09:28PM 41.0167 -97.8220 90° East  Level FlightAware Approximate
09:28PM 40.9986 -98.2197 101° East 171 197 4,800  Level Minneapolis Center
09:29PM 41.0202 -97.7404 85° East  Level FlightAware Approximate
09:29PM 40.9953 -98.1583 94° East 166 191 5,800  Level Minneapolis Center
09:30PM 41.0251 -97.6589 85° East  Level FlightAware Approximate
09:30PM 40.9939 -98.0911 92° East 173 199 6,800  Level Minneapolis Center
09:31PM 41.0298 -97.5774 86° East  Level FlightAware Approximate
09:31PM 41.0003 -98.0061 84° East 189 217 8,100  Level Minneapolis Center
09:32PM 41.0359 -97.4960 81° East  Level FlightAware Approximate
09:32PM 41.0075 -97.9367 82° East 189 217 9,100  Level Minneapolis Center
09:33PM 41.0108 -97.8578 87° East 208 239 9,100  Level Minneapolis Center
09:35PM 41.0189 -97.7711 83° East 232 267 9,100  Level Minneapolis Center
09:36PM 40.9956 -97.6731 107° East 242 278 9,100  Level Minneapolis Center
09:36PM 40.9989 -97.6150 86° East 242 278 9,200  Climbing Minneapolis Center
09:37PM 41.0208 -97.5950 35° Northeast 236 272 9,100 -300 Descending Minneapolis Center
09:37PM 41.0000 -97.5128 109° East 238 274 8,900 -120 Descending Minneapolis Center
09:38PM 41.0200 -97.5078 11° North 236 272 9,000 60 Climbing Minneapolis Center
09:38PM 40.9953 -97.4250 112° Southeast 241 277 9,000 60 Level Minneapolis Center
09:39PM 41.0156 -97.4192 12° North 238 274 9,100 60 Climbing Minneapolis Center
09:39PM 41.0056 -97.3414 100° East 241 277 9,100 -120 Level Minneapolis Center
09:40PM 41.0264 -97.3244 32° Northeast 238 274 9,000 -120 Descending Minneapolis Center
09:40PM 41.0150 -97.2467 101° East 239 275 9,000  Level Minneapolis Center
09:41PM 41.0342 -97.2356 24° Northeast 239 275 9,000  Level Minneapolis Center
09:41PM 41.0361 -97.1728 88° East 236 272 9,000 60 Level Minneapolis Center
09:42PM 41.0583 -97.1558 30° Northeast 236 272 9,100 60 Climbing Minneapolis Center
09:42PM 41.0675 -97.0981 78° East 232 267 9,100  Level Minneapolis Center
09:43PM 41.0875 -97.0775 38° Northeast 234 269 9,100 -120 Level Minneapolis Center
09:43PM 41.0792 -97.0114 99° East 244 281 9,000 -120 Descending Minneapolis Center
09:44PM 41.0972 -96.9717 59° Northeast 238 274 9,000 60 Level Minneapolis Center
09:44PM 41.0844 -96.9169 107° East 246 283 9,100 60 Climbing Minneapolis Center
09:45PM 41.0947 -96.8814 69° East 242 278 9,100  Level Minneapolis Center
09:45PM 41.0800 -96.8400 115° Southeast 248 285 9,100 -120 Level Minneapolis Center
09:46PM 41.0919 -96.7911 72° East 243 280 9,000 60 Descending Minneapolis Center
09:46PM 41.0850 -96.7511 103° East 245 282 9,200  Climbing Minneapolis Center
09:47PM 41.1033 -96.7028 63° Northeast 243 280 9,000 -120 Descending Minneapolis Center
09:47PM 41.1025 -96.6581 91° East 243 280 9,100  Climbing Minneapolis Center
09:48PM 41.1181 -96.6158 64° Northeast 243 280 9,000  Descending Minneapolis Center
09:48PM 41.1100 -96.5714 104° East 242 278 9,100  Climbing Minneapolis Center
09:49PM 41.1178 -96.5269 77° East 242 278 9,000  Descending Minneapolis Center
09:49PM 41.1108 -96.4828 102° East 238 274 9,100  Climbing Minneapolis Center
09:50PM 41.1217 -96.4408 71° East 241 277 9,000  Descending Minneapolis Center
09:50PM 41.1181 -96.3964 96° East 236 272 9,100 -300 Climbing Minneapolis Center
09:51PM 41.1275 -96.3547 73° East 237 273 8,700 -720 Descending Minneapolis Center
09:51PM 41.1267 -96.2986 91° East 244 281 8,300 -1,020 Descending Minneapolis Center
09:52PM 41.1358 -96.2481 76° East 238 274 7,700 -900 Descending Minneapolis Center
09:52PM 41.1356 -96.2064 90° East 237 273 7,400 -900 Descending Minneapolis Center
09:53PM 41.1414 -96.1628 80° East 238 274 6,800 -780 Descending Minneapolis Center
09:53PM 41.1414 -96.1339 90° East 230 265 6,700 -600 Descending Minneapolis Center
09:54PM 41.1478 -96.0814 81° East 233 268 6,200 -840 Descending Minneapolis Center
09:54PM 41.1483 -96.0500 89° East 216 249 5,900 -1,140 Descending Minneapolis Center
09:55PM 41.1561 -96.0028 78° East 224 258 5,100 -1,140 Descending Minneapolis Center
09:55PM 41.1581 -95.9714 85° East 213 245 4,800 -900 Descending Minneapolis Center
09:56PM 41.1564 -95.9258 93° East 218 251 4,200 -840 Descending Minneapolis Center
09:57PM 41.1394 -95.8822 117° Southeast 216 249 3,800 -600 Descending Minneapolis Center
09:57PM 41.1311 -95.8539 111° Southeast 220 253 3,600 -600 Descending Minneapolis Center
09:57PM 41.1186 -95.8181 115° Southeast 204 235 3,300 -600 Descending Minneapolis Center
09:58PM 41.1075 -95.7883 116° Southeast 209 241 3,000 -300 Descending Minneapolis Center
09:58PM 41.1231 -95.7622 52° Northeast 169 194 3,000  Level Minneapolis Center
09:59PM 41.1469 -95.7447 29° Northeast 181 208 3,000  Level Minneapolis Center
09:59PM 41.1606 -95.7578 324° Northwest 145 167 3,000 -240 Level Minneapolis Center
10:00PM 41.1775 -95.7794 316° Northwest 158 182 2,800 -180 Descending Minneapolis Center
10:01PM 41.1989 -95.8006 323° Northwest 145 167 2,800  Level Minneapolis Center
10:01PM 41.2119 -95.8097 332° Northwest 153 176 2,800 -180 Level Minneapolis Center
10:02PM 41.2325 -95.8325 320° Northwest 116 133 2,600 -300 Descending Minneapolis Center
10:02PM 41.2389 -95.8361 337° Northwest 139 160 2,500 -600 Descending Minneapolis Center
10:03PM 41.2572 -95.8575 319° Northwest 101 116 2,000 -600 Descending Minneapolis Center
10:03PM 41.2619 -95.8575 360° North 118 136 1,900 -600 Descending Minneapolis Center
10:04PM 41.2794 -95.8769 320° Northwest 106 122 1,500 -600 Descending Minneapolis Center
10:04PM 41.2894 -95.8836 333° Northwest 108 124 1,300 -300 Descending Minneapolis Center
10:05PM 41.3111 -95.9039 325° Northwest 106 122 1,100 -240 Descending Minneapolis Center